Time;durP1;ratioP1;P1;durP2;ratioP2;P2;SDS_P1;SDS_P2;PMS_P1;PMS_P2;Temp;Humidity;BMP_temperature;BMP_pressure;BME280_temperature;BME280_humidity;BME280_pressure;Samples;Min_cycle;Max_cycle;Signal;HPM_P1;HPM_P2
2022/10/14 00:00:18;;;;;;;78.18;13.05;;;;;;;;;;6186175;23;20029;-79
2022/10/14 00:02:45;;;;;;;89.28;14.38;;;;;;;;;;6188238;23;20024;-79
2022/10/14 00:05:11;;;;;;;119.47;15.23;;;;;;;;;;6184854;23;20025;-77
2022/10/14 00:07:38;;;;;;;119.65;13.57;;;;;;;;;;6187805;23;20556;-78
2022/10/14 00:10:05;;;;;;;127.95;15.50;;;;;;;;;;6158273;23;20030;-77
2022/10/14 00:12:31;;;;;;;99.78;14.38;;;;;;;;;;6155963;23;20029;-79
2022/10/14 00:14:58;;;;;;;133.70;14.38;;;;;;;;;;6158038;23;20022;-79
2022/10/14 00:17:24;;;;;;;78.63;12.40;;;;;;;;;;6152611;23;20025;-76
2022/10/14 00:19:50;;;;;;;134.55;14.00;;;;;;;;;;6153118;23;20460;-77
2022/10/14 00:22:17;;;;;;;83.30;13.07;;;;;;;;;;6153843;23;20026;-76
2022/10/14 00:24:43;;;;;;;134.15;13.40;;;;;;;;;;6153026;23;20038;-76
2022/10/14 00:27:09;;;;;;;115.38;13.57;;;;;;;;;;6128455;23;20041;-77
2022/10/14 00:29:35;;;;;;;161.55;16.73;;;;;;;;;;6155418;23;20037;-79
2022/10/14 00:32:02;;;;;;;249.43;16.77;;;;;;;;;;6130911;23;20030;-78
2022/10/14 00:34:28;;;;;;;126.90;13.82;;;;;;;;;;6157371;23;20462;-78
2022/10/14 00:36:55;;;;;;;127.22;14.38;;;;;;;;;;6157987;23;20781;-78
2022/10/14 00:39:22;;;;;;;150.23;14.80;;;;;;;;;;6157467;23;20025;-80
2022/10/14 00:41:48;;;;;;;136.30;14.32;;;;;;;;;;6154374;23;20025;-79
2022/10/14 00:44:14;;;;;;;100.55;13.00;;;;;;;;;;6127846;23;20041;-78
2022/10/14 00:46:42;;;;;;;88.68;12.63;;;;;;;;;;6154790;23;20093;-79
2022/10/14 00:49:14;;;;;;;138.80;14.63;;;;;;;;;;6128786;23;20490;-80
2022/10/14 00:51:42;;;;;;;70.85;12.10;;;;;;;;;;6127009;23;20034;-79
2022/10/14 00:54:09;;;;;;;87.57;13.02;;;;;;;;;;6155194;23;20030;-78
2022/10/14 00:56:35;;;;;;;115.38;13.95;;;;;;;;;;6154742;23;20030;-80
2022/10/14 00:59:02;;;;;;;61.47;12.50;;;;;;;;;;6155515;23;20038;-80
2022/10/14 01:01:28;;;;;;;118.72;14.23;;;;;;;;;;6127930;23;20030;-79
2022/10/14 01:03:55;;;;;;;65.35;12.40;;;;;;;;;;6154303;23;20060;-80
2022/10/14 01:06:21;;;;;;;75.72;13.02;;;;;;;;;;6154804;23;20033;-80
2022/10/14 01:08:50;;;;;;;121.72;14.80;;;;;;;;;;6149627;23;20021;-79
2022/10/14 01:11:32;;;;;;;86.82;13.02;;;;;;;;;;6184269;23;20415;-80
2022/10/14 01:14:06;;;;;;;85.65;12.85;;;;;;;;;;6183431;23;20506;-80
2022/10/14 01:16:43;;;;;;;142.18;14.70;;;;;;;;;;6182895;23;20029;-79
2022/10/14 01:19:15;;;;;;;109.95;14.65;;;;;;;;;;6183821;23;20042;-78
2022/10/14 01:21:49;;;;;;;75.93;13.32;;;;;;;;;;6183215;23;20026;-80
2022/10/14 01:24:26;;;;;;;102.18;13.73;;;;;;;;;;6181422;23;20034;-82
2022/10/14 01:27:08;;;;;;;70.35;12.63;;;;;;;;;;6182861;23;20017;-79
2022/10/14 01:29:58;;;;;;;84.95;13.88;;;;;;;;;;6182820;23;20907;-79
2022/10/14 01:32:27;;;;;;;61.10;12.82;;;;;;;;;;6184222;23;20030;-79
2022/10/14 01:35:16;;;;;;;63.20;15.20;;;;;;;;;;6182250;23;20013;-79
2022/10/14 01:37:48;;;;;;;57.28;12.25;;;;;;;;;;6168848;23;20021;-82
2022/10/14 01:40:21;;;;;;;115.93;15.85;;;;;;;;;;6184542;23;20036;-80
2022/10/14 01:42:48;;;;;;;109.53;16.85;;;;;;;;;;6184093;23;20054;-79
2022/10/14 01:45:17;;;;;;;116.68;16.80;;;;;;;;;;6183271;23;20041;-80
2022/10/14 01:47:47;;;;;;;125.00;17.10;;;;;;;;;;6184078;23;20052;-79
2022/10/14 01:50:15;;;;;;;62.45;15.15;;;;;;;;;;6180452;23;20025;-78
2022/10/14 01:53:10;;;;;;;64.97;16.52;;;;;;;;;;6182503;23;20822;-79
2022/10/14 01:55:38;;;;;;;82.78;17.52;;;;;;;;;;6158593;23;20513;-80
2022/10/14 01:58:05;;;;;;;123.22;19.83;;;;;;;;;;6182553;23;20029;-78
2022/10/14 02:00:32;;;;;;;91.68;18.67;;;;;;;;;;6182315;23;20041;-80
2022/10/14 02:02:58;;;;;;;141.57;20.38;;;;;;;;;;6180511;23;20481;-78
2022/10/14 02:05:24;;;;;;;121.35;20.10;;;;;;;;;;6180933;23;20029;-77
2022/10/14 02:07:54;;;;;;;141.65;20.98;;;;;;;;;;6180971;23;20033;-78
2022/10/14 02:10:21;;;;;;;109.22;19.25;;;;;;;;;;6152495;23;20400;-76
2022/10/14 02:12:57;;;;;;;171.70;23.40;;;;;;;;;;6152840;23;20034;-77
2022/10/14 02:15:31;;;;;;;152.00;22.08;;;;;;;;;;6152479;23;20048;-80
2022/10/14 02:18:18;;;;;;;76.50;18.52;;;;;;;;;;6152083;23;20057;-79
2022/10/14 02:20:48;;;;;;;151.10;21.98;;;;;;;;;;6152060;23;20061;-77
2022/10/14 02:23:18;;;;;;;183.75;24.02;;;;;;;;;;6152554;23;20033;-78
2022/10/14 02:25:45;;;;;;;136.85;22.85;;;;;;;;;;6151750;23;20030;-77
2022/10/14 02:28:14;;;;;;;232.80;24.75;;;;;;;;;;6150457;23;20030;-79
2022/10/14 02:30:43;;;;;;;211.43;26.73;;;;;;;;;;6152684;23;20430;-78
2022/10/14 02:33:10;;;;;;;126.85;22.08;;;;;;;;;;6152154;23;20041;-77
2022/10/14 02:35:37;;;;;;;292.70;29.40;;;;;;;;;;6126302;23;20026;-77
2022/10/14 02:38:04;;;;;;;74.75;20.38;;;;;;;;;;6152440;23;20030;-77
2022/10/14 02:40:39;;;;;;;133.88;23.92;;;;;;;;;;6127000;23;20030;-77
2022/10/14 02:43:08;;;;;;;132.80;22.48;;;;;;;;;;6127586;23;20501;-75
2022/10/14 02:45:39;;;;;;;92.13;21.65;;;;;;;;;;6153584;23;20026;-77
2022/10/14 02:48:05;;;;;;;125.15;25.13;;;;;;;;;;6127272;23;20030;-77
2022/10/14 02:50:31;;;;;;;87.25;21.85;;;;;;;;;;6128167;23;20073;-75
2022/10/14 02:52:58;;;;;;;158.52;25.20;;;;;;;;;;6153869;23;20030;-76
2022/10/14 02:55:24;;;;;;;160.38;25.52;;;;;;;;;;6153716;23;20038;-77
2022/10/14 02:57:50;;;;;;;76.88;22.80;;;;;;;;;;6128439;23;20085;-77
2022/10/14 03:00:16;;;;;;;107.45;24.00;;;;;;;;;;6128455;23;20041;-77
2022/10/14 03:02:43;;;;;;;157.32;25.80;;;;;;;;;;6128969;23;20032;-77
2022/10/14 03:05:09;;;;;;;64.85;21.88;;;;;;;;;;6155325;23;20030;-78
2022/10/14 03:07:35;;;;;;;77.05;23.15;;;;;;;;;;6157673;23;20041;-79
2022/10/14 03:10:02;;;;;;;98.30;25.00;;;;;;;;;;6157059;23;20494;-79
2022/10/14 03:12:28;;;;;;;66.20;21.67;;;;;;;;;;6158375;23;20436;-79
2022/10/14 03:14:55;;;;;;;75.90;22.52;;;;;;;;;;6131707;23;20076;-77
2022/10/14 03:17:21;;;;;;;81.32;22.40;;;;;;;;;;6158294;23;20022;-77
2022/10/14 03:19:47;;;;;;;81.85;22.63;;;;;;;;;;6157141;23;20097;-77
2022/10/14 03:22:13;;;;;;;75.43;23.73;;;;;;;;;;6158193;23;20026;-78
2022/10/14 03:24:40;;;;;;;74.75;24.52;;;;;;;;;;6132520;23;20060;-79
2022/10/14 03:27:06;;;;;;;99.80;26.10;;;;;;;;;;6133345;23;20038;-78
2022/10/14 03:29:32;;;;;;;79.13;24.23;;;;;;;;;;6130731;23;20034;-78
2022/10/14 03:31:58;;;;;;;78.72;24.40;;;;;;;;;;6131409;23;20805;-79
2022/10/14 03:34:25;;;;;;;84.95;25.55;;;;;;;;;;6156966;23;20118;-77
2022/10/14 03:36:51;;;;;;;84.05;25.25;;;;;;;;;;6131244;23;20030;-78
2022/10/14 03:39:17;;;;;;;89.45;24.65;;;;;;;;;;6131005;23;20097;-77
2022/10/14 03:41:43;;;;;;;173.57;29.33;;;;;;;;;;6131431;23;20029;-78
2022/10/14 03:44:11;;;;;;;79.82;25.08;;;;;;;;;;6129673;23;20014;-78
2022/10/14 03:46:37;;;;;;;83.68;25.92;;;;;;;;;;6157278;23;20030;-78
2022/10/14 03:49:03;;;;;;;122.45;26.92;;;;;;;;;;6130764;23;20036;-78
2022/10/14 03:51:29;;;;;;;93.90;26.17;;;;;;;;;;6130841;23;20030;-78
2022/10/14 03:53:56;;;;;;;141.40;29.40;;;;;;;;;;6157958;23;20038;-78
2022/10/14 03:56:22;;;;;;;132.65;29.40;;;;;;;;;;6130259;23;20399;-79
2022/10/14 03:58:49;;;;;;;167.32;31.13;;;;;;;;;;6131460;23;20018;-78
2022/10/14 04:01:15;;;;;;;109.38;28.65;;;;;;;;;;6157437;23;20025;-78
2022/10/14 04:03:41;;;;;;;236.73;33.33;;;;;;;;;;6130625;23;20033;-76
2022/10/14 04:06:07;;;;;;;125.47;30.13;;;;;;;;;;6155647;23;20088;-78
2022/10/14 04:08:34;;;;;;;115.85;29.35;;;;;;;;;;6156606;23;20479;-79
2022/10/14 04:11:00;;;;;;;134.43;30.25;;;;;;;;;;6131302;23;20423;-78
2022/10/14 04:13:27;;;;;;;137.15;29.73;;;;;;;;;;6131883;23;20431;-79
2022/10/14 04:15:53;;;;;;;132.68;28.98;;;;;;;;;;6131377;23;20030;-79
2022/10/14 04:18:19;;;;;;;144.43;29.05;;;;;;;;;;6155972;23;20037;-80
2022/10/14 04:20:46;;;;;;;121.55;29.17;;;;;;;;;;6129579;23;20026;-80
2022/10/14 04:23:12;;;;;;;174.85;30.23;;;;;;;;;;6131518;23;20038;-78
2022/10/14 04:25:39;;;;;;;112.15;28.27;;;;;;;;;;6156727;23;20710;-76
2022/10/14 04:28:05;;;;;;;115.15;27.92;;;;;;;;;;6129847;23;20030;-79
2022/10/14 04:30:31;;;;;;;104.63;28.70;;;;;;;;;;6156148;23;20034;-80
2022/10/14 04:32:57;;;;;;;93.90;25.77;;;;;;;;;;6157591;23;20030;-79
2022/10/14 04:35:24;;;;;;;136.93;29.63;;;;;;;;;;6157525;23;20033;-79
2022/10/14 04:37:50;;;;;;;158.23;31.05;;;;;;;;;;6131513;23;20029;-79
2022/10/14 04:40:19;;;;;;;113.07;29.02;;;;;;;;;;6158053;23;20030;-79
2022/10/14 04:42:45;;;;;;;109.97;28.88;;;;;;;;;;6157374;23;20022;-77
2022/10/14 04:45:11;;;;;;;116.88;27.70;;;;;;;;;;6131663;23;20014;-76
2022/10/14 04:47:38;;;;;;;98.30;26.65;;;;;;;;;;6157520;23;20030;-77
2022/10/14 04:50:04;;;;;;;108.25;27.63;;;;;;;;;;6156417;23;20021;-77
2022/10/14 04:52:30;;;;;;;99.40;27.35;;;;;;;;;;6132413;23;20018;-78
2022/10/14 04:54:57;;;;;;;138.43;29.95;;;;;;;;;;6131351;23;20034;-79
2022/10/14 04:57:23;;;;;;;99.10;27.58;;;;;;;;;;6159134;23;20030;-79
2022/10/14 04:59:49;;;;;;;123.13;28.50;;;;;;;;;;6132744;23;20404;-77
2022/10/14 05:02:17;;;;;;;126.93;28.58;;;;;;;;;;6158211;23;20109;-79
2022/10/14 05:04:43;;;;;;;111.88;28.58;;;;;;;;;;6133305;23;20030;-79
2022/10/14 05:07:10;;;;;;;163.73;31.63;;;;;;;;;;6159898;23;20025;-79
2022/10/14 05:09:36;;;;;;;150.48;32.28;;;;;;;;;;6159101;23;20036;-79
2022/10/14 05:12:03;;;;;;;119.22;29.77;;;;;;;;;;6132038;23;20025;-78
2022/10/14 05:14:29;;;;;;;118.53;29.17;;;;;;;;;;6159502;23;20029;-78
2022/10/14 05:16:55;;;;;;;114.32;29.35;;;;;;;;;;6158646;23;20033;-79
2022/10/14 05:19:21;;;;;;;117.07;27.83;;;;;;;;;;6159950;23;20021;-78
2022/10/14 05:21:48;;;;;;;121.93;30.13;;;;;;;;;;6135067;23;20029;-79
2022/10/14 05:24:14;;;;;;;89.70;26.35;;;;;;;;;;6132696;23;20704;-79
2022/10/14 05:26:41;;;;;;;91.85;27.05;;;;;;;;;;6160162;23;20017;-79
2022/10/14 05:29:08;;;;;;;109.65;27.38;;;;;;;;;;6158420;23;20030;-79
2022/10/14 05:31:35;;;;;;;95.30;26.77;;;;;;;;;;6157728;23;20038;-78
2022/10/14 05:34:01;;;;;;;87.93;26.00;;;;;;;;;;6132423;23;20022;-79
2022/10/14 05:36:27;;;;;;;104.47;27.30;;;;;;;;;;6132391;23;20018;-79
2022/10/14 05:38:57;;;;;;;95.40;25.75;;;;;;;;;;6158727;23;20034;-79
2022/10/14 05:41:24;;;;;;;93.10;26.30;;;;;;;;;;6158319;23;20026;-78
2022/10/14 05:43:50;;;;;;;100.78;27.05;;;;;;;;;;6133382;23;20509;-80
2022/10/14 05:46:16;;;;;;;96.82;27.02;;;;;;;;;;6134107;23;20026;-79
2022/10/14 05:48:43;;;;;;;93.55;28.08;;;;;;;;;;6133525;23;20030;-79
2022/10/14 05:51:09;;;;;;;111.60;28.52;;;;;;;;;;6134397;23;20384;-78
2022/10/14 05:53:37;;;;;;;92.55;25.75;;;;;;;;;;6135999;23;20877;-78
2022/10/14 05:56:05;;;;;;;94.28;23.95;;;;;;;;;;6160665;23;20034;-78
2022/10/14 05:58:32;;;;;;;94.00;25.40;;;;;;;;;;6135874;23;20466;-78
2022/10/14 06:01:01;;;;;;;93.30;23.58;;;;;;;;;;6160711;23;20018;-80
2022/10/14 06:03:28;;;;;;;77.35;22.65;;;;;;;;;;6163189;23;20034;-79
2022/10/14 06:05:54;;;;;;;69.25;22.35;;;;;;;;;;6163013;23;20101;-80
2022/10/14 06:08:21;;;;;;;85.45;21.80;;;;;;;;;;6148469;23;20021;-80
2022/10/14 06:10:47;;;;;;;83.30;23.15;;;;;;;;;;6193118;23;20013;-80
2022/10/14 06:13:14;;;;;;;80.00;22.15;;;;;;;;;;6191868;23;20025;-79
2022/10/14 06:15:40;;;;;;;79.63;21.73;;;;;;;;;;6195198;23;20025;-78
2022/10/14 06:18:06;;;;;;;85.35;22.77;;;;;;;;;;6192391;23;20033;-85
2022/10/14 06:20:32;;;;;;;84.78;22.10;;;;;;;;;;6186879;23;20984;-83
2022/10/14 06:22:59;;;;;;;82.15;20.38;;;;;;;;;;6187372;23;20513;-82
2022/10/14 06:25:25;;;;;;;77.00;22.80;;;;;;;;;;6184798;23;20018;-80
2022/10/14 06:27:52;;;;;;;64.75;19.27;;;;;;;;;;6185706;23;20088;-79
2022/10/14 06:30:18;;;;;;;82.95;20.55;;;;;;;;;;6185099;23;20030;-79
2022/10/14 06:32:44;;;;;;;73.10;20.55;;;;;;;;;;6185097;23;20490;-80
2022/10/14 06:35:11;;;;;;;55.25;18.83;;;;;;;;;;6187315;23;20024;-80
2022/10/14 06:37:37;;;;;;;63.67;19.92;;;;;;;;;;6187568;23;20034;-79
2022/10/14 06:40:04;;;;;;;56.63;18.85;;;;;;;;;;6187371;23;20522;-80
2022/10/14 06:42:32;;;;;;;64.43;19.02;;;;;;;;;;6184410;23;20032;-79
2022/10/14 06:44:58;;;;;;;58.00;17.65;;;;;;;;;;6187518;23;20088;-80
2022/10/14 06:47:24;;;;;;;52.65;17.38;;;;;;;;;;6188399;23;20032;-79
2022/10/14 06:49:51;;;;;;;44.22;15.93;;;;;;;;;;6187289;23;20040;-80
2022/10/14 06:52:17;;;;;;;44.58;15.75;;;;;;;;;;6189805;23;20026;-80
2022/10/14 06:54:43;;;;;;;47.08;16.83;;;;;;;;;;6189347;23;20017;-79
2022/10/14 06:57:13;;;;;;;51.42;16.27;;;;;;;;;;6186718;23;20093;-78
2022/10/14 06:59:40;;;;;;;49.40;16.77;;;;;;;;;;6183321;23;20021;-79
2022/10/14 07:02:06;;;;;;;47.30;16.10;;;;;;;;;;6189511;23;20029;-76
2022/10/14 07:04:32;;;;;;;49.10;16.23;;;;;;;;;;6189968;23;20033;-77
2022/10/14 07:06:59;;;;;;;48.78;16.67;;;;;;;;;;6190349;23;20021;-77
2022/10/14 07:09:25;;;;;;;46.03;17.15;;;;;;;;;;6190634;23;20018;-78
2022/10/14 07:11:51;;;;;;;41.08;15.80;;;;;;;;;;6189045;23;20021;-79
2022/10/14 07:14:18;;;;;;;42.95;15.88;;;;;;;;;;6192018;23;20026;-78
2022/10/14 07:16:44;;;;;;;50.75;16.17;;;;;;;;;;6194091;23;20459;-77
2022/10/14 07:19:10;;;;;;;49.35;15.38;;;;;;;;;;6194251;23;20021;-78
2022/10/14 07:21:37;;;;;;;44.45;17.15;;;;;;;;;;6194149;23;20387;-80
2022/10/14 07:24:05;;;;;;;37.92;14.85;;;;;;;;;;6194321;23;20033;-79
2022/10/14 07:26:31;;;;;;;44.97;16.27;;;;;;;;;;6192486;23;20021;-78
2022/10/14 07:28:58;;;;;;;41.22;16.55;;;;;;;;;;6191805;23;20056;-79
2022/10/14 07:31:25;;;;;;;36.38;16.27;;;;;;;;;;6191531;23;20030;-79
2022/10/14 07:33:51;;;;;;;34.70;14.88;;;;;;;;;;6189692;23;20025;-79
2022/10/14 07:36:18;;;;;;;39.28;14.48;;;;;;;;;;6189965;23;20033;-79
2022/10/14 07:38:48;;;;;;;34.38;14.68;;;;;;;;;;6189842;23;20029;-79
2022/10/14 07:41:15;;;;;;;33.33;12.70;;;;;;;;;;6189519;23;20032;-80
2022/10/14 07:44:04;;;;;;;43.67;15.63;;;;;;;;;;6184271;23;20030;-77
2022/10/14 07:46:32;;;;;;;41.72;15.90;;;;;;;;;;6181971;23;20032;-75
2022/10/14 07:48:59;;;;;;;41.47;17.35;;;;;;;;;;6183100;23;20037;-77
2022/10/14 07:51:26;;;;;;;44.25;16.65;;;;;;;;;;6183248;23;20064;-77
2022/10/14 07:53:52;;;;;;;47.60;16.98;;;;;;;;;;6183685;23;20033;-77
2022/10/14 07:56:19;;;;;;;48.20;18.02;;;;;;;;;;6182877;23;20041;-77
2022/10/14 07:58:46;;;;;;;48.85;17.83;;;;;;;;;;6181990;23;20029;-77
2022/10/14 08:01:14;;;;;;;50.28;18.00;;;;;;;;;;6182320;23;20036;-77
2022/10/14 08:03:41;;;;;;;53.58;18.13;;;;;;;;;;6182344;23;20085;-76
2022/10/14 08:06:07;;;;;;;52.72;19.15;;;;;;;;;;6182726;23;20026;-77
2022/10/14 08:08:34;;;;;;;48.13;17.95;;;;;;;;;;6172192;23;20049;-76
2022/10/14 08:11:01;;;;;;;46.70;18.02;;;;;;;;;;6152361;23;20029;-76
2022/10/14 08:13:28;;;;;;;51.10;17.90;;;;;;;;;;6153324;23;20117;-79
2022/10/14 08:15:55;;;;;;;52.08;19.17;;;;;;;;;;6133220;23;20093;-79
2022/10/14 08:18:22;;;;;;;47.67;18.05;;;;;;;;;;6159416;23;20022;-78
2022/10/14 08:20:54;;;;;;;49.88;18.42;;;;;;;;;;6134650;23;20427;-81
2022/10/14 08:23:21;;;;;;;54.53;19.63;;;;;;;;;;6133119;23;20030;-82
2022/10/14 08:25:48;;;;;;;62.00;20.63;;;;;;;;;;6158185;23;20025;-82
2022/10/14 08:28:14;;;;;;;54.05;20.70;;;;;;;;;;6132144;23;20085;-81
2022/10/14 08:30:40;;;;;;;57.17;19.83;;;;;;;;;;6132601;23;20442;-80
2022/10/14 08:33:07;;;;;;;48.78;17.80;;;;;;;;;;6132559;23;20026;-79
2022/10/14 08:35:33;;;;;;;51.83;18.50;;;;;;;;;;6158725;23;20492;-80
2022/10/14 08:38:00;;;;;;;46.63;19.30;;;;;;;;;;6158096;23;20073;-81
2022/10/14 08:40:28;;;;;;;43.40;18.23;;;;;;;;;;6157443;23;20471;-81
2022/10/14 08:42:57;;;;;;;50.03;17.73;;;;;;;;;;6157219;23;20049;-80
2022/10/14 08:45:26;;;;;;;43.25;17.55;;;;;;;;;;6131443;23;20679;-80
2022/10/14 08:47:55;;;;;;;50.35;17.50;;;;;;;;;;6131755;23;20510;-81
2022/10/14 08:50:40;;;;;;;49.17;17.53;;;;;;;;;;6131635;23;20776;-80
2022/10/14 08:53:12;;;;;;;43.00;16.55;;;;;;;;;;6131882;23;20085;-81
2022/10/14 08:55:40;;;;;;;40.58;17.42;;;;;;;;;;6158202;23;20021;-81
2022/10/14 08:58:11;;;;;;;39.42;16.83;;;;;;;;;;6157512;23;20029;-80
2022/10/14 09:00:39;;;;;;;36.30;15.40;;;;;;;;;;6158097;23;20014;-80
2022/10/14 09:03:12;;;;;;;37.78;16.27;;;;;;;;;;6156833;23;20034;-80
2022/10/14 09:05:38;;;;;;;41.60;17.00;;;;;;;;;;6130763;23;20030;-80
2022/10/14 09:08:06;;;;;;;39.58;15.75;;;;;;;;;;6131753;23;20026;-80
2022/10/14 09:10:38;;;;;;;33.53;14.32;;;;;;;;;;6155469;23;20069;-81
2022/10/14 09:13:15;;;;;;;31.23;15.57;;;;;;;;;;6130560;23;20030;-78
2022/10/14 09:15:42;;;;;;;33.15;14.85;;;;;;;;;;6155453;23;20030;-78
2022/10/14 09:18:18;;;;;;;29.65;15.93;;;;;;;;;;6154729;23;20037;-78
2022/10/14 09:20:45;;;;;;;31.95;15.13;;;;;;;;;;6155722;23;20022;-78
2022/10/14 09:23:14;;;;;;;29.35;14.77;;;;;;;;;;6156043;23;20053;-78
2022/10/14 09:25:54;;;;;;;33.95;15.55;;;;;;;;;;6131829;23;20040;-81
2022/10/14 09:28:23;;;;;;;30.80;15.02;;;;;;;;;;6133072;23;20026;-81
2022/10/14 09:30:49;;;;;;;35.35;16.92;;;;;;;;;;6158678;23;20069;-81
2022/10/14 09:33:19;;;;;;;27.98;14.77;;;;;;;;;;6158983;23;20018;-81
2022/10/14 09:35:46;;;;;;;28.03;15.83;;;;;;;;;;6132537;23;20033;-81
2022/10/14 09:38:13;;;;;;;28.50;13.80;;;;;;;;;;6133377;23;20018;-81
2022/10/14 09:40:43;;;;;;;29.75;15.60;;;;;;;;;;6132791;23;20021;-81
2022/10/14 09:43:09;;;;;;;30.80;16.60;;;;;;;;;;6132847;23;20038;-81
2022/10/14 09:45:46;;;;;;;31.15;15.75;;;;;;;;;;6156958;23;20030;-82
2022/10/14 09:48:38;;;;;;;27.55;14.13;;;;;;;;;;6158039;23;20028;-81
2022/10/14 09:51:09;;;;;;;29.30;15.02;;;;;;;;;;6117044;23;20033;-81
2022/10/14 09:53:48;;;;;;;27.35;14.35;;;;;;;;;;6133097;23;20085;-81
2022/10/14 09:56:14;;;;;;;25.88;13.32;;;;;;;;;;6132255;23;20038;-81
2022/10/14 09:58:45;;;;;;;31.48;16.48;;;;;;;;;;6133282;23;20024;-82
2022/10/14 10:01:19;;;;;;;28.95;15.25;;;;;;;;;;6158144;23;20734;-81
2022/10/14 10:03:46;;;;;;;27.67;15.43;;;;;;;;;;6131972;23;20026;-80
2022/10/14 10:06:14;;;;;;;26.30;14.32;;;;;;;;;;6158292;23;20357;-82
2022/10/14 10:08:54;;;;;;;24.13;13.38;;;;;;;;;;6156877;23;20030;-82
2022/10/14 10:11:32;;;;;;;23.40;13.15;;;;;;;;;;6131985;23;20791;-80
2022/10/14 10:14:10;;;;;;;23.33;13.38;;;;;;;;;;6157342;23;20063;-81
2022/10/14 10:16:37;;;;;;;22.35;12.35;;;;;;;;;;6157774;23;20030;-82
2022/10/14 10:19:22;;;;;;;22.23;12.07;;;;;;;;;;6156654;23;20060;-82
2022/10/14 10:21:48;;;;;;;24.15;13.05;;;;;;;;;;6157616;23;21003;-81
2022/10/14 10:24:20;;;;;;;22.13;12.15;;;;;;;;;;6157113;23;20030;-81
2022/10/14 10:26:47;;;;;;;25.38;13.18;;;;;;;;;;6157935;23;20411;-81
2022/10/14 10:29:24;;;;;;;20.70;11.38;;;;;;;;;;6132650;23;20081;-81
2022/10/14 10:31:56;;;;;;;26.95;12.57;;;;;;;;;;6156114;23;20013;-81
2022/10/14 10:34:41;;;;;;;20.65;11.73;;;;;;;;;;6158381;23;20030;-80
2022/10/14 10:37:37;;;;;;;24.13;12.43;;;;;;;;;;6158697;23;20026;-82
2022/10/14 10:40:09;;;;;;;21.33;11.27;;;;;;;;;;6003599;23;20032;-80
2022/10/14 10:42:51;;;;;;;20.85;11.70;;;;;;;;;;6156999;23;20459;-82
2022/10/14 10:45:36;;;;;;;21.05;11.35;;;;;;;;;;6156352;23;20629;-79
2022/10/14 10:48:06;;;;;;;19.15;10.70;;;;;;;;;;6156114;23;20030;-80
2022/10/14 10:50:45;;;;;;;18.90;10.38;;;;;;;;;;6159958;23;20030;-79
2022/10/14 10:53:30;;;;;;;17.88;9.77;;;;;;;;;;6135008;23;20030;-80
2022/10/14 10:56:21;;;;;;;16.83;9.60;;;;;;;;;;6136101;23;20030;-82
2022/10/14 10:59:06;;;;;;;17.67;9.57;;;;;;;;;;6161891;23;20058;-79
2022/10/14 11:01:50;;;;;;;13.60;8.10;;;;;;;;;;6134671;23;20037;-81
2022/10/14 11:04:22;;;;;;;16.77;9.20;;;;;;;;;;6161391;23;20032;-80
2022/10/14 11:13:03;;;;;;;17.38;10.00;;;;;;;;;;6159899;23;20114;-81
2022/10/14 11:15:41;;;;;;;15.43;9.50;;;;;;;;;;6133261;23;20379;-83
2022/10/14 11:18:10;;;;;;;18.33;9.80;;;;;;;;;;6134056;23;20550;-82
2022/10/14 11:20:37;;;;;;;17.83;10.07;;;;;;;;;;6133685;23;20032;-81
2022/10/14 11:23:06;;;;;;;20.98;10.85;;;;;;;;;;6159071;23;20014;-82
2022/10/14 11:25:41;;;;;;;15.10;9.18;;;;;;;;;;6158185;23;20022;-83
2022/10/14 11:28:23;;;;;;;19.42;10.75;;;;;;;;;;6133932;23;20024;-83
2022/10/14 11:30:58;;;;;;;17.98;9.45;;;;;;;;;;6159068;23;20060;-81
2022/10/14 11:33:28;;;;;;;23.83;9.52;;;;;;;;;;6160191;23;20025;-80
2022/10/14 11:35:57;;;;;;;20.05;10.30;;;;;;;;;;6134404;23;20030;-81
2022/10/14 11:38:23;;;;;;;18.60;9.57;;;;;;;;;;6158551;23;20025;-80
2022/10/14 11:40:56;;;;;;;16.42;9.98;;;;;;;;;;6158534;23;20018;-80
2022/10/14 11:43:31;;;;;;;16.85;9.98;;;;;;;;;;6158306;23;20034;-80
2022/10/14 11:46:06;;;;;;;16.17;9.13;;;;;;;;;;6131836;23;20022;-79
2022/10/14 11:48:36;;;;;;;16.73;9.55;;;;;;;;;;6131336;23;20030;-80
2022/10/14 11:51:05;;;;;;;15.20;8.45;;;;;;;;;;6159147;23;20026;-81
2022/10/14 11:53:34;;;;;;;12.65;6.97;;;;;;;;;;6158796;23;20026;-83
2022/10/14 11:56:03;;;;;;;14.27;7.72;;;;;;;;;;6156601;23;20026;-82
2022/10/14 11:58:30;;;;;;;16.17;8.30;;;;;;;;;;6131777;23;20562;-82
2022/10/14 12:01:00;;;;;;;14.13;8.23;;;;;;;;;;6133418;23;20022;-81
2022/10/14 12:03:47;;;;;;;14.43;8.10;;;;;;;;;;6133807;23;20057;-82
2022/10/14 12:06:19;;;;;;;12.88;8.05;;;;;;;;;;6132329;23;20062;-82
2022/10/14 12:08:49;;;;;;;14.60;8.45;;;;;;;;;;6155080;23;20021;-82
2022/10/14 12:11:26;;;;;;;12.75;8.13;;;;;;;;;;6187965;23;20036;-81
2022/10/14 12:13:55;;;;;;;15.50;8.57;;;;;;;;;;6191354;23;20026;-82
2022/10/14 12:16:22;;;;;;;12.65;7.65;;;;;;;;;;6189075;23;20482;-81
2022/10/14 12:18:51;;;;;;;13.52;7.47;;;;;;;;;;6189076;23;20025;-81
2022/10/14 12:21:26;;;;;;;13.45;7.60;;;;;;;;;;6187785;23;20056;-81
2022/10/14 12:23:56;;;;;;;14.63;7.65;;;;;;;;;;6187055;23;20037;-82
2022/10/14 12:26:23;;;;;;;12.77;6.97;;;;;;;;;;6187180;23;20037;-82
2022/10/14 12:28:50;;;;;;;12.52;7.18;;;;;;;;;;6185802;23;20034;-83
2022/10/14 12:31:22;;;;;;;9.50;5.87;;;;;;;;;;6186177;23;20030;-83
2022/10/14 12:34:07;;;;;;;11.98;6.90;;;;;;;;;;6185237;23;20025;-83
2022/10/14 12:36:33;;;;;;;11.25;7.07;;;;;;;;;;6190373;23;21341;-83
2022/10/14 12:39:16;;;;;;;12.02;7.03;;;;;;;;;;6187510;23;20030;-82
2022/10/14 12:41:46;;;;;;;11.15;6.93;;;;;;;;;;6187844;23;20029;-82
2022/10/14 12:44:16;;;;;;;13.40;6.72;;;;;;;;;;6188360;23;20021;-82
2022/10/14 12:46:46;;;;;;;11.00;6.82;;;;;;;;;;6187731;23;20824;-82
2022/10/14 12:49:18;;;;;;;10.20;6.32;;;;;;;;;;6188722;23;20030;-83
2022/10/14 12:51:57;;;;;;;10.57;6.45;;;;;;;;;;6185146;23;20475;-82
2022/10/14 12:54:24;;;;;;;11.40;6.68;;;;;;;;;;6185024;23;20928;-82
2022/10/14 12:56:55;;;;;;;10.75;6.03;;;;;;;;;;6184333;23;20026;-82
2022/10/14 12:59:29;;;;;;;13.60;5.72;;;;;;;;;;6184597;23;20037;-82
2022/10/14 13:01:58;;;;;;;10.02;5.40;;;;;;;;;;6184423;23;20388;-82
2022/10/14 13:04:25;;;;;;;9.40;5.78;;;;;;;;;;6184588;23;20022;-83
2022/10/14 13:07:10;;;;;;;10.98;6.45;;;;;;;;;;6185159;23;20029;-82
2022/10/14 13:09:45;;;;;;;9.93;5.72;;;;;;;;;;6184442;23;20021;-82
2022/10/14 13:12:20;;;;;;;10.67;6.13;;;;;;;;;;6185820;23;20030;-83
2022/10/14 13:14:57;;;;;;;11.25;5.65;;;;;;;;;;6184504;23;20446;-83
2022/10/14 13:17:27;;;;;;;11.18;6.03;;;;;;;;;;6184858;23;20032;-82
2022/10/14 13:19:53;;;;;;;12.23;6.38;;;;;;;;;;6185403;23;20030;-82
2022/10/14 13:22:29;;;;;;;10.13;6.00;;;;;;;;;;6185664;23;20029;-82
2022/10/14 13:25:06;;;;;;;12.38;6.18;;;;;;;;;;6186443;23;20776;-82
2022/10/14 13:27:39;;;;;;;13.35;6.78;;;;;;;;;;6185329;23;20140;-82
2022/10/14 13:30:15;;;;;;;10.13;5.57;;;;;;;;;;6184399;23;20026;-83
2022/10/14 13:32:51;;;;;;;13.18;6.50;;;;;;;;;;6184137;23;20431;-83
2022/10/14 13:35:41;;;;;;;11.63;6.32;;;;;;;;;;6183871;23;20073;-83
2022/10/14 13:38:18;;;;;;;12.27;6.38;;;;;;;;;;6186080;23;20032;-83
2022/10/14 13:40:55;;;;;;;11.88;6.55;;;;;;;;;;6184746;23;20029;-83
2022/10/14 13:43:30;;;;;;;10.48;6.13;;;;;;;;;;6184556;23;20036;-83
2022/10/14 13:46:05;;;;;;;10.60;6.05;;;;;;;;;;6183910;23;20037;-84
2022/10/14 13:48:34;;;;;;;11.20;5.72;;;;;;;;;;6186347;23;20032;-82
2022/10/14 13:51:06;;;;;;;11.60;5.68;;;;;;;;;;6188432;23;20675;-82
2022/10/14 13:53:57;;;;;;;10.75;5.80;;;;;;;;;;6193285;23;20018;-82
2022/10/14 13:56:25;;;;;;;13.02;6.20;;;;;;;;;;6190565;23;20030;-84
2022/10/14 13:58:52;;;;;;;12.18;6.63;;;;;;;;;;6192694;23;20033;-84
2022/10/14 14:01:19;;;;;;;11.32;5.57;;;;;;;;;;6187561;23;20021;-83
2022/10/14 14:03:49;;;;;;;11.32;5.70;;;;;;;;;;6191696;23;20030;-84
2022/10/14 14:06:17;;;;;;;10.27;5.60;;;;;;;;;;6186928;23;20029;-84
2022/10/14 14:08:43;;;;;;;10.90;5.78;;;;;;;;;;6185370;23;20033;-86
2022/10/14 14:11:37;;;;;;;9.52;5.68;;;;;;;;;;6186212;23;20035;-86
2022/10/14 14:14:06;;;;;;;10.50;5.82;;;;;;;;;;6183081;23;20052;-85
2022/10/14 14:16:40;;;;;;;12.73;6.05;;;;;;;;;;6185814;23;20080;-85
2022/10/14 14:19:16;;;;;;;10.88;5.72;;;;;;;;;;6186739;23;20439;-83
2022/10/14 14:21:43;;;;;;;12.18;5.95;;;;;;;;;;6187102;23;20450;-85
2022/10/14 14:24:15;;;;;;;11.05;5.95;;;;;;;;;;6187209;23;20430;-84
2022/10/14 14:26:41;;;;;;;12.52;7.13;;;;;;;;;;6184966;23;20033;-83
2022/10/14 14:29:18;;;;;;;12.07;6.25;;;;;;;;;;6186130;23;20532;-86
2022/10/14 14:31:45;;;;;;;12.82;6.97;;;;;;;;;;6185708;23;20030;-83
2022/10/14 14:34:33;;;;;;;12.88;7.32;;;;;;;;;;6186210;23;20072;-81
2022/10/14 14:37:00;;;;;;;15.00;7.78;;;;;;;;;;6185342;23;20033;-84